createdAt,value
2017-09-09T00:00:09.651Z,2.47
2017-09-09T00:02:37.262Z,2.40
2017-09-09T00:05:04.128Z,3.17
2017-09-09T00:07:31.051Z,2.77
2017-09-09T00:10:09.385Z,2.43
2017-09-09T00:12:44.521Z,3.60
2017-09-09T00:15:15.906Z,2.87
2017-09-09T00:17:52.228Z,2.63
2017-09-09T00:20:19.715Z,2.70
2017-09-09T00:22:46.635Z,3.13
2017-09-09T00:25:22.369Z,2.70
2017-09-09T00:27:49.836Z,2.77
2017-09-09T00:30:16.720Z,2.50
2017-09-09T00:32:43.660Z,3.43
2017-09-09T00:35:10.609Z,2.97
2017-09-09T00:37:37.582Z,2.87
2017-09-09T00:40:04.427Z,3.23
2017-09-09T00:42:31.386Z,2.50
2017-09-09T00:44:58.285Z,2.80
2017-09-09T00:47:25.172Z,2.57
2017-09-09T00:49:52.115Z,2.70
2017-09-09T00:52:19.176Z,2.37
2017-09-09T00:54:46.259Z,2.40
2017-09-09T00:57:13.224Z,2.73
2017-09-09T00:59:40.124Z,2.30
2017-09-09T01:02:07.075Z,2.70
2017-09-09T01:04:34.029Z,2.43
2017-09-09T01:07:01.032Z,3.13
2017-09-09T01:09:27.971Z,2.83
2017-09-09T01:11:55.652Z,2.60
2017-09-09T01:14:22.628Z,3.20
2017-09-09T01:16:49.531Z,2.33
2017-09-09T01:19:17.356Z,2.80
2017-09-09T01:21:44.346Z,2.67
2017-09-09T01:24:12.056Z,2.90
2017-09-09T01:26:39.042Z,2.93
2017-09-09T01:29:06.723Z,2.63
2017-09-09T01:31:34.412Z,2.17
2017-09-09T01:34:01.288Z,3.80
2017-09-09T01:36:28.253Z,2.30
2017-09-09T01:38:55.182Z,2.97
2017-09-09T01:41:22.028Z,2.43
2017-09-09T01:43:48.972Z,2.50
2017-09-09T01:46:15.843Z,2.40
2017-09-09T01:48:42.703Z,2.47
2017-09-09T01:51:09.612Z,2.90
2017-09-09T01:53:36.658Z,3.20
2017-09-09T01:56:03.529Z,2.20
2017-09-09T01:58:31.176Z,2.50
2017-09-09T02:00:58.126Z,2.93
2017-09-09T02:03:25.065Z,2.50
2017-09-09T02:05:51.993Z,3.10
2017-09-09T02:08:18.934Z,2.57
2017-09-09T02:10:45.857Z,2.47
2017-09-09T02:13:12.838Z,3.10
2017-09-09T02:15:39.791Z,2.50
2017-09-09T02:18:06.828Z,1.90
2017-09-09T02:20:33.719Z,2.67
2017-09-09T02:23:01.412Z,2.40
2017-09-09T02:25:28.287Z,2.50
2017-09-09T02:27:55.227Z,2.60
2017-09-09T02:30:22.133Z,2.83
2017-09-09T02:32:49.064Z,2.87
2017-09-09T02:35:16.777Z,2.53
2017-09-09T02:37:43.625Z,3.10
2017-09-09T02:40:10.606Z,2.77
2017-09-09T02:42:37.451Z,3.27
2017-09-09T02:45:05.051Z,3.10
2017-09-09T02:47:41.976Z,2.13
2017-09-09T02:50:19.567Z,2.67
2017-09-09T02:52:52.115Z,3.60
2017-09-09T02:55:32.853Z,3.03
2017-09-09T02:58:10.442Z,3.10
2017-09-09T03:00:46.499Z,2.90
2017-09-09T03:03:13.796Z,3.03
2017-09-09T03:05:40.796Z,2.77
2017-09-09T03:08:08.416Z,2.50
2017-09-09T03:10:35.371Z,2.70
2017-09-09T03:13:02.245Z,2.43
2017-09-09T03:15:29.925Z,2.67
2017-09-09T03:17:57.596Z,3.63
2017-09-09T03:20:24.460Z,3.60
2017-09-09T03:22:51.481Z,3.00
2017-09-09T03:25:19.080Z,2.90
2017-09-09T03:27:45.956Z,3.40
2017-09-09T03:30:12.917Z,3.63
2017-09-09T03:32:40.547Z,3.20
2017-09-09T03:35:07.527Z,3.33
2017-09-09T03:37:35.135Z,3.30
2017-09-09T03:40:02.025Z,3.10
2017-09-09T03:42:28.960Z,3.13
2017-09-09T03:44:55.874Z,3.80
2017-09-09T03:47:22.734Z,3.63
2017-09-09T03:49:49.680Z,3.43
2017-09-09T03:52:16.550Z,2.83
2017-09-09T03:54:44.209Z,3.10
2017-09-09T03:57:11.144Z,2.80
2017-09-09T03:59:38.011Z,3.10
2017-09-09T04:02:05.701Z,3.50
2017-09-09T04:04:32.649Z,3.03
2017-09-09T04:06:59.500Z,3.00
2017-09-09T04:09:26.430Z,3.60
2017-09-09T04:11:54.081Z,3.40
2017-09-09T04:14:21.756Z,3.40
2017-09-09T04:16:49.345Z,3.10
2017-09-09T04:19:16.381Z,3.57
2017-09-09T04:21:43.245Z,4.03
2017-09-09T04:24:10.159Z,3.63
2017-09-09T04:26:38.727Z,3.40
2017-09-09T04:29:06.349Z,3.43
2017-09-09T04:31:33.286Z,3.53
2017-09-09T04:34:00.123Z,2.50
2017-09-09T04:36:27.073Z,3.03
2017-09-09T04:38:53.930Z,3.53
2017-09-09T04:41:20.826Z,3.37
2017-09-09T04:43:47.768Z,3.13
2017-09-09T04:46:15.544Z,3.20
2017-09-09T04:48:42.504Z,3.33
2017-09-09T04:51:09.632Z,3.30
2017-09-09T04:53:37.253Z,3.50
2017-09-09T04:56:04.185Z,3.00
2017-09-09T04:58:31.062Z,3.23
2017-09-09T05:00:57.943Z,3.30
2017-09-09T05:03:24.859Z,3.80
2017-09-09T05:05:51.801Z,3.70
2017-09-09T05:08:18.781Z,3.53
2017-09-09T05:10:45.655Z,3.40
2017-09-09T05:13:12.525Z,3.70
2017-09-09T05:15:39.471Z,3.07
2017-09-09T05:18:06.634Z,3.00
2017-09-09T05:20:33.541Z,3.33
2017-09-09T05:23:03.363Z,4.60
2017-09-09T05:25:30.452Z,3.10
2017-09-09T05:27:58.148Z,3.37
2017-09-09T05:30:25.085Z,3.77
2017-09-09T05:32:51.972Z,2.90
2017-09-09T05:35:18.945Z,3.00
2017-09-09T05:37:45.967Z,4.10
2017-09-09T05:40:12.852Z,3.37
2017-09-09T05:42:40.477Z,3.40
2017-09-09T05:45:07.417Z,3.57
2017-09-09T05:47:34.415Z,3.47
2017-09-09T05:50:01.326Z,3.33
2017-09-09T05:52:28.321Z,3.17
2017-09-09T05:54:55.261Z,3.97
2017-09-09T05:57:22.147Z,3.80
2017-09-09T05:59:49.319Z,3.67
2017-09-09T06:02:16.260Z,3.43
2017-09-09T06:04:43.212Z,3.50
2017-09-09T06:07:10.177Z,3.20
2017-09-09T06:09:37.785Z,4.23
2017-09-09T06:12:04.726Z,3.90
2017-09-09T06:14:31.623Z,3.80
2017-09-09T06:16:58.602Z,3.90
2017-09-09T06:19:25.544Z,3.80
2017-09-09T06:21:52.487Z,3.80
2017-09-09T06:24:19.419Z,3.63
2017-09-09T06:26:46.363Z,3.63
2017-09-09T06:29:14.070Z,3.40
2017-09-09T06:31:40.978Z,3.77
2017-09-09T06:34:08.681Z,3.27
2017-09-09T06:36:35.586Z,4.23
2017-09-09T06:39:02.658Z,3.47
2017-09-09T06:41:29.527Z,3.90
2017-09-09T06:43:56.473Z,4.10
2017-09-09T06:46:23.460Z,4.10
2017-09-09T06:48:50.372Z,3.83
2017-09-09T06:51:17.268Z,3.87
2017-09-09T06:53:44.981Z,4.03
2017-09-09T06:56:11.940Z,4.17
2017-09-09T06:58:38.913Z,4.50
2017-09-09T07:01:05.820Z,3.43
2017-09-09T07:03:32.740Z,4.07
2017-09-09T07:05:59.785Z,4.20
2017-09-09T07:08:26.663Z,4.00
2017-09-09T07:10:53.590Z,4.87
2017-09-09T07:13:25.757Z,3.50
2017-09-09T07:15:53.183Z,4.10
2017-09-09T07:18:20.478Z,4.17
2017-09-09T07:20:50.788Z,3.23
2017-09-09T07:23:18.677Z,4.40
2017-09-09T07:25:45.564Z,4.00
2017-09-09T07:28:18.916Z,3.97
2017-09-09T07:30:47.648Z,3.97
2017-09-09T07:33:24.861Z,4.10
2017-09-09T07:35:54.533Z,3.93
2017-09-09T07:38:30.015Z,3.30
2017-09-09T07:41:10.443Z,3.90
2017-09-09T07:43:47.956Z,3.50
2017-09-09T07:46:31.492Z,4.33
2017-09-09T07:49:10.646Z,3.60
2017-09-09T07:51:38.172Z,3.90
2017-09-09T07:54:15.522Z,3.33
2017-09-09T07:56:45.257Z,4.20
2017-09-09T07:59:16.095Z,3.50
2017-09-09T08:01:43.975Z,3.93
2017-09-09T08:04:13.340Z,3.90
2017-09-09T08:06:48.087Z,3.77
2017-09-09T08:09:17.963Z,4.13
2017-09-09T08:11:45.297Z,3.00
2017-09-09T08:14:13.324Z,3.40
2017-09-09T08:16:41.316Z,3.23
2017-09-09T08:19:09.289Z,2.87
2017-09-09T08:21:36.911Z,2.67
2017-09-09T08:24:05.872Z,3.50
2017-09-09T08:26:33.653Z,3.20
2017-09-09T08:29:02.588Z,2.50
2017-09-09T08:34:17.530Z,2.73
2017-09-09T08:36:46.960Z,2.20
2017-09-09T08:39:15.465Z,2.40
2017-09-09T08:41:42.620Z,2.30
2017-09-09T08:44:20.527Z,2.10
2017-09-09T08:46:51.287Z,2.50
2017-09-09T08:49:28.046Z,2.33
2017-09-09T08:52:00.174Z,2.97
2017-09-09T08:54:28.480Z,1.97
2017-09-09T08:56:58.892Z,2.27
2017-09-09T08:59:40.298Z,2.30
2017-09-09T09:05:23.309Z,1.63
2017-09-09T09:07:54.516Z,1.93
2017-09-09T09:10:26.975Z,1.97
2017-09-09T09:12:57.800Z,2.03
2017-09-09T09:15:30.183Z,1.93
2017-09-09T09:17:59.547Z,1.57
2017-09-09T09:20:27.298Z,2.10
2017-09-09T09:22:55.996Z,1.70
2017-09-09T09:25:29.171Z,1.47
2017-09-09T09:28:00.696Z,1.33
2017-09-09T09:30:27.611Z,1.97
2017-09-09T09:32:59.887Z,1.43
2017-09-09T09:35:27.204Z,1.20
2017-09-09T09:37:55.859Z,1.00
2017-09-09T09:40:24.823Z,1.40
2017-09-09T09:43:02.614Z,1.57
2017-09-09T09:45:35.291Z,1.17
2017-09-09T09:48:04.216Z,1.60
2017-09-09T09:50:37.894Z,1.00
2017-09-09T09:53:17.065Z,1.80
2017-09-09T09:55:49.248Z,1.20
2017-09-09T09:58:21.559Z,1.53
2017-09-09T10:00:57.989Z,1.60
2017-09-09T10:03:26.962Z,1.90
2017-09-09T10:06:02.459Z,1.63
2017-09-09T10:08:38.342Z,1.23
2017-09-09T10:11:05.530Z,1.53
2017-09-09T10:13:34.867Z,2.07
2017-09-09T10:16:01.925Z,1.60
2017-09-09T10:18:28.856Z,1.90
2017-09-09T10:21:05.482Z,1.77
2017-09-09T10:23:37.410Z,1.80
2017-09-09T10:26:16.151Z,1.73
2017-09-09T10:28:50.122Z,1.70
2017-09-09T10:31:31.586Z,1.60
2017-09-09T10:34:10.754Z,1.67
2017-09-09T10:36:51.795Z,2.00
2017-09-09T10:39:29.745Z,1.40
2017-09-09T10:42:10.706Z,1.60
2017-09-09T10:44:41.800Z,1.70
2017-09-09T10:47:09.926Z,1.13
2017-09-09T10:49:36.844Z,1.60
2017-09-09T10:52:03.728Z,1.83
2017-09-09T10:54:30.667Z,1.40
2017-09-09T10:56:57.536Z,1.53
2017-09-09T10:59:24.513Z,1.47
2017-09-09T11:01:53.328Z,1.67
2017-09-09T11:04:21.875Z,1.40
2017-09-09T11:06:49.303Z,1.57
2017-09-09T11:09:17.184Z,2.07
2017-09-09T11:11:44.205Z,2.13
2017-09-09T11:14:11.200Z,2.10
2017-09-09T11:16:47.604Z,1.90
2017-09-09T11:19:14.556Z,1.73
2017-09-09T11:21:45.121Z,1.90
2017-09-09T11:24:13.828Z,1.67
2017-09-09T11:26:40.745Z,1.70
2017-09-09T11:29:07.720Z,1.90
2017-09-09T11:31:36.305Z,1.57
2017-09-09T11:34:03.156Z,1.77
2017-09-09T11:36:31.515Z,1.70
2017-09-09T11:38:59.818Z,1.93
2017-09-09T11:41:28.905Z,2.00
2017-09-09T11:43:57.592Z,2.20
2017-09-09T11:46:28.067Z,1.60
2017-09-09T11:48:57.473Z,1.70
2017-09-09T11:51:25.160Z,1.70
2017-09-09T11:53:52.763Z,2.20
2017-09-09T11:56:20.799Z,2.20
2017-09-09T11:58:48.597Z,2.00
2017-09-09T12:01:19.696Z,2.40
2017-09-09T12:03:47.411Z,1.93
2017-09-09T12:06:16.089Z,2.13
2017-09-09T12:08:43.943Z,1.70
2017-09-09T12:11:11.495Z,2.17
2017-09-09T12:13:43.452Z,2.10
2017-09-09T12:16:10.801Z,2.20
2017-09-09T12:18:38.783Z,2.10
2017-09-09T12:21:06.292Z,2.40
2017-09-09T12:23:34.919Z,1.93
2017-09-09T12:26:02.014Z,2.47
2017-09-09T12:28:29.664Z,1.37
2017-09-09T12:30:56.640Z,2.50
2017-09-09T12:33:24.518Z,2.90
2017-09-09T12:35:51.436Z,1.63
2017-09-09T12:38:19.288Z,2.23
2017-09-09T12:40:46.216Z,2.20
2017-09-09T12:43:13.069Z,2.00
2017-09-09T12:45:40.084Z,1.77
2017-09-09T12:48:07.046Z,1.60
2017-09-09T12:50:34.816Z,2.20
2017-09-09T12:53:01.672Z,2.23
2017-09-09T12:55:28.620Z,1.50
2017-09-09T12:57:55.517Z,1.67
2017-09-09T13:00:23.123Z,2.10
2017-09-09T13:02:50.136Z,2.03
2017-09-09T13:05:19.841Z,2.07
2017-09-09T13:07:47.121Z,2.23
2017-09-09T13:10:16.499Z,2.00
2017-09-09T13:12:46.087Z,1.80
2017-09-09T13:15:14.544Z,2.60
2017-09-09T13:17:42.643Z,2.50
2017-09-09T13:20:20.466Z,1.83
2017-09-09T13:22:48.924Z,1.80
2017-09-09T13:25:18.726Z,2.17
2017-09-09T13:27:46.546Z,2.20
2017-09-09T13:32:57.430Z,1.83
2017-09-09T13:35:33.809Z,1.93
2017-09-09T13:38:08.512Z,2.07
2017-09-09T13:40:36.215Z,1.87
2017-09-09T13:43:05.713Z,1.80
2017-09-09T13:45:38.309Z,2.20
2017-09-09T13:48:07.251Z,1.60
2017-09-09T13:50:39.106Z,1.77
2017-09-09T13:53:07.407Z,2.27
2017-09-09T13:55:38.179Z,1.73
2017-09-09T13:58:14.046Z,1.50
2017-09-09T14:00:42.709Z,1.97
2017-09-09T14:03:13.020Z,2.10
2017-09-09T14:05:50.763Z,1.90
2017-09-09T14:08:20.474Z,2.10
2017-09-09T14:10:51.308Z,1.77
2017-09-09T14:13:18.266Z,1.60
2017-09-09T14:15:45.407Z,1.57
2017-09-09T14:18:12.344Z,1.50
2017-09-09T14:20:43.175Z,1.70
2017-09-09T14:23:10.133Z,1.60
2017-09-09T14:25:39.781Z,1.30
2017-09-09T14:28:07.779Z,1.93
2017-09-09T14:30:34.728Z,1.50
2017-09-09T14:33:01.669Z,1.30
2017-09-09T14:35:29.477Z,1.77
2017-09-09T14:37:58.822Z,1.60
2017-09-09T14:40:28.057Z,1.60
2017-09-09T14:42:55.474Z,1.77
2017-09-09T14:45:24.069Z,1.90
2017-09-09T14:47:51.829Z,1.70
2017-09-09T14:50:19.651Z,1.90
2017-09-09T14:52:46.552Z,1.80
2017-09-09T14:55:14.156Z,2.00
2017-09-09T14:57:41.100Z,1.57
2017-09-09T15:00:08.012Z,2.20
2017-09-09T15:02:35.491Z,1.80
2017-09-09T15:05:02.444Z,2.23
2017-09-09T15:07:29.384Z,1.87
2017-09-09T15:10:03.852Z,2.23
2017-09-09T15:12:31.387Z,1.70
2017-09-09T15:14:58.316Z,1.80
2017-09-09T15:17:26.848Z,2.40
2017-09-09T15:19:59.105Z,2.00
2017-09-09T15:22:29.874Z,2.03
2017-09-09T15:25:04.357Z,2.53
2017-09-09T15:27:36.141Z,2.00
2017-09-09T15:30:10.438Z,1.60
2017-09-09T15:32:53.905Z,1.93
2017-09-09T15:35:22.104Z,2.30
2017-09-09T15:37:52.613Z,1.80
2017-09-09T15:40:23.082Z,1.97
2017-09-09T15:43:00.004Z,2.00
2017-09-09T15:45:29.980Z,2.10
2017-09-09T15:47:58.696Z,2.27
2017-09-09T15:50:31.241Z,1.90
2017-09-09T15:52:59.910Z,1.80
2017-09-09T15:55:30.095Z,1.60
2017-09-09T15:58:04.342Z,2.20
2017-09-09T16:00:31.676Z,2.13
2017-09-09T16:03:00.155Z,2.10
2017-09-09T16:05:27.160Z,2.83
2017-09-09T16:08:05.403Z,1.90
2017-09-09T16:10:37.400Z,2.10
2017-09-09T16:13:07.861Z,2.50
2017-09-09T16:15:39.546Z,1.77
2017-09-09T16:18:13.954Z,1.83
2017-09-09T16:20:45.282Z,1.87
2017-09-09T16:23:15.717Z,1.50
2017-09-09T16:25:46.983Z,1.97
2017-09-09T16:28:14.786Z,2.07
2017-09-09T16:30:46.543Z,1.80
2017-09-09T16:33:14.888Z,1.90
2017-09-09T16:35:48.327Z,2.00
2017-09-09T16:38:26.435Z,2.00
2017-09-09T16:40:53.931Z,2.13
2017-09-09T16:43:34.003Z,1.90
2017-09-09T16:46:01.433Z,1.80
2017-09-09T16:48:28.277Z,2.10
2017-09-09T16:50:55.211Z,2.00
2017-09-09T16:53:22.133Z,2.27
2017-09-09T16:56:00.149Z,2.43
2017-09-09T16:58:41.729Z,2.33
2017-09-09T17:01:12.320Z,1.80
2017-09-09T17:03:41.032Z,2.10
2017-09-09T17:06:10.354Z,2.10
2017-09-09T17:08:38.795Z,2.03
2017-09-09T17:11:05.828Z,1.80
2017-09-09T17:13:32.732Z,1.73
2017-09-09T17:16:03.361Z,1.50
2017-09-09T17:18:30.310Z,1.80
2017-09-09T17:20:57.264Z,2.33
2017-09-09T17:23:24.215Z,2.50
2017-09-09T17:25:51.913Z,2.10
2017-09-09T17:28:18.861Z,2.13
2017-09-09T17:30:45.761Z,2.83
2017-09-09T17:33:13.392Z,2.33
2017-09-09T17:35:40.337Z,2.27
2017-09-09T17:38:07.280Z,3.00
2017-09-09T17:40:34.224Z,2.73
2017-09-09T17:43:01.133Z,4.20
2017-09-09T17:45:28.789Z,3.80
2017-09-09T17:47:55.727Z,3.10
2017-09-09T17:50:22.581Z,2.40
2017-09-09T17:52:49.525Z,2.90
2017-09-09T17:55:16.394Z,2.63
2017-09-09T17:57:43.268Z,2.67
2017-09-09T18:00:10.208Z,2.93
2017-09-09T18:05:30.449Z,2.80
2017-09-09T18:07:57.334Z,2.50
2017-09-09T18:10:24.285Z,2.60
2017-09-09T18:12:51.213Z,6.10
2017-09-09T18:15:18.110Z,4.30
2017-09-09T18:17:45.205Z,2.50
2017-09-09T18:20:12.159Z,3.37
2017-09-09T18:22:39.193Z,3.03
2017-09-09T18:25:06.080Z,2.83
2017-09-09T18:27:33.780Z,3.30
2017-09-09T18:30:00.724Z,2.90
2017-09-09T18:32:27.658Z,2.83
2017-09-09T18:34:54.534Z,2.03
2017-09-09T18:37:21.437Z,2.37
2017-09-09T18:39:48.459Z,2.30
2017-09-09T18:42:15.333Z,2.70
2017-09-09T18:44:42.277Z,2.70
2017-09-09T18:47:09.279Z,2.13
2017-09-09T18:49:36.208Z,2.40
2017-09-09T18:52:03.090Z,1.77
2017-09-09T18:54:29.960Z,2.50
2017-09-09T18:56:56.969Z,2.10
2017-09-09T18:59:23.978Z,2.20
2017-09-09T19:01:50.859Z,2.50
2017-09-09T19:04:17.725Z,1.67
2017-09-09T19:06:45.435Z,2.53
2017-09-09T19:09:12.328Z,2.07
2017-09-09T19:11:40.012Z,2.63
2017-09-09T19:14:07.733Z,2.70
2017-09-09T19:16:34.668Z,2.30
2017-09-09T19:19:01.642Z,1.93
2017-09-09T19:21:28.632Z,2.00
2017-09-09T19:23:55.517Z,2.00
2017-09-09T19:26:22.400Z,2.40
2017-09-09T19:28:50.151Z,2.20
2017-09-09T19:31:17.097Z,1.90
2017-09-09T19:33:44.038Z,2.33
2017-09-09T19:36:10.929Z,1.80
2017-09-09T19:38:37.986Z,2.20
2017-09-09T19:41:04.916Z,3.07
2017-09-09T19:43:31.794Z,2.60
2017-09-09T19:45:58.805Z,1.77
2017-09-09T19:48:25.682Z,2.40
2017-09-09T19:50:52.740Z,1.90
2017-09-09T19:53:19.641Z,2.80
2017-09-09T19:55:46.528Z,2.43
2017-09-09T19:58:13.471Z,3.90
2017-09-09T20:00:41.579Z,2.70
2017-09-09T20:03:09.501Z,2.00
2017-09-09T20:05:36.448Z,2.93
2017-09-09T20:08:03.337Z,2.70
2017-09-09T20:10:30.203Z,2.87
2017-09-09T20:12:57.876Z,2.10
2017-09-09T20:15:24.898Z,2.10
2017-09-09T20:17:51.821Z,2.20
2017-09-09T20:20:23.665Z,3.40
2017-09-09T20:22:50.659Z,4.90
2017-09-09T20:25:18.406Z,7.10
2017-09-09T20:27:46.899Z,6.30
2017-09-09T20:30:16.745Z,4.57
2017-09-09T20:32:44.115Z,4.37
2017-09-09T20:35:11.479Z,4.07
2017-09-09T20:37:38.380Z,4.30
2017-09-09T20:40:06.071Z,3.40
2017-09-09T20:42:35.639Z,2.97
2017-09-09T20:45:11.969Z,2.67
2017-09-09T20:47:41.439Z,2.50
2017-09-09T20:50:11.480Z,2.73
2017-09-09T20:52:41.050Z,2.40
2017-09-09T20:55:10.675Z,2.60
2017-09-09T20:57:39.227Z,3.10
2017-09-09T21:00:10.211Z,5.80
2017-09-09T21:02:37.314Z,5.47
2017-09-09T21:05:04.403Z,3.20
2017-09-09T21:07:32.412Z,3.07
2017-09-09T21:10:01.246Z,2.40
2017-09-09T21:12:31.767Z,2.40
2017-09-09T21:14:59.849Z,3.20
2017-09-09T21:17:28.669Z,2.87
2017-09-09T21:19:56.422Z,2.80
2017-09-09T21:22:23.400Z,2.63
2017-09-09T21:24:52.227Z,2.53
2017-09-09T21:27:19.186Z,2.20
2017-09-09T21:29:48.892Z,2.83
2017-09-09T21:32:19.075Z,2.17
2017-09-09T21:34:48.870Z,2.70
2017-09-09T21:37:17.769Z,2.30
2017-09-09T21:39:46.125Z,2.70
2017-09-09T21:42:14.645Z,3.50
2017-09-09T21:44:43.447Z,4.30
2017-09-09T21:47:18.181Z,2.83
2017-09-09T21:49:48.317Z,2.60
2017-09-09T21:52:21.664Z,2.83
2017-09-09T21:54:50.814Z,2.33
2017-09-09T21:57:20.901Z,2.90
2017-09-09T21:59:50.322Z,2.40
2017-09-09T22:02:18.372Z,2.20
2017-09-09T22:04:47.720Z,2.50
2017-09-09T22:07:16.024Z,2.30
2017-09-09T22:09:44.900Z,2.43
2017-09-09T22:12:14.211Z,2.13
2017-09-09T22:14:41.329Z,2.67
2017-09-09T22:17:08.250Z,2.33
2017-09-09T22:19:36.557Z,2.37
2017-09-09T22:22:04.368Z,2.60
2017-09-09T22:24:31.298Z,3.07
2017-09-09T22:26:58.348Z,2.27
2017-09-09T22:29:27.013Z,2.50
2017-09-09T22:31:54.636Z,2.50
2017-09-09T22:34:22.468Z,1.97
2017-09-09T22:36:49.381Z,2.03
2017-09-09T22:39:17.017Z,2.40
2017-09-09T22:41:43.973Z,2.53
2017-09-09T22:44:10.892Z,2.73
2017-09-09T22:46:37.942Z,2.53
2017-09-09T22:49:04.844Z,2.30
2017-09-09T22:51:44.597Z,2.73
2017-09-09T22:54:12.002Z,3.57
2017-09-09T22:56:38.989Z,3.23
2017-09-09T22:59:05.939Z,3.23
2017-09-09T23:01:33.700Z,2.83
2017-09-09T23:04:01.330Z,3.03
2017-09-09T23:06:28.221Z,2.77
2017-09-09T23:08:55.230Z,3.23
2017-09-09T23:11:22.113Z,2.90
2017-09-09T23:13:49.011Z,2.93
2017-09-09T23:16:16.109Z,2.80
2017-09-09T23:18:43.022Z,3.60
2017-09-09T23:21:10.155Z,2.70
2017-09-09T23:23:37.223Z,2.77
2017-09-09T23:26:04.120Z,3.00
2017-09-09T23:28:31.137Z,3.10
2017-09-09T23:30:58.078Z,3.37
2017-09-09T23:33:24.985Z,3.07
2017-09-09T23:35:51.936Z,2.93
2017-09-09T23:38:18.840Z,3.10
2017-09-09T23:40:45.788Z,3.13
2017-09-09T23:43:12.697Z,2.80
2017-09-09T23:45:40.347Z,3.27
2017-09-09T23:48:07.293Z,3.57
2017-09-09T23:50:34.173Z,3.30
2017-09-09T23:53:01.117Z,3.50
2017-09-09T23:55:28.002Z,3.33
2017-09-09T23:57:54.894Z,3.27
